Terminal Aerodrome Forecast
Issued by NWS Twin Cities, MN

Home | Current Version | Previous Version | Graphics & Text | Print | Product List | Glossary On
Versions: 1 2 3 4 5 6 7 8 9 10 11 12 13 14 15 16 17
672
FTUS43 KMPX 250536 AAA
TAFSTC
TAF AMD
KSTC 250536Z 2506/2606 16008KT P6SM VCSH BKN090
     FM251000 15010KT P6SM SHRA SCT060 BKN090
     FM251300 16012KT P6SM SCT020 BKN035
     FM252200 18009KT P6SM BKN090
     FM260200 20008KT P6SM SHRA VCTS BKN040CB=

USA.gov is the U.S. government's official web portal to all federal, state and local government web resources and services.